sensor_id;sensor_type;location;lat;lon;timestamp;P1;durP1;ratioP1;P2;durP2;ratioP2
11092;SDS011;5600;50.864;6.102;2023-05-17T00:01:07;84.90;;;5.83;;
11092;SDS011;5600;50.864;6.102;2023-05-17T00:04:07;93.50;;;6.40;;
11092;SDS011;5600;50.864;6.102;2023-05-17T00:07:08;89.33;;;6.53;;
11092;SDS011;5600;50.864;6.102;2023-05-17T00:10:09;73.87;;;5.30;;
11092;SDS011;5600;50.864;6.102;2023-05-17T00:13:10;71.13;;;5.30;;
11092;SDS011;5600;50.864;6.102;2023-05-17T00:16:11;86.23;;;6.27;;
11092;SDS011;5600;50.864;6.102;2023-05-17T00:19:11;86.27;;;6.23;;
11092;SDS011;5600;50.864;6.102;2023-05-17T00:22:12;73.77;;;5.47;;
11092;SDS011;5600;50.864;6.102;2023-05-17T00:25:13;95.53;;;6.50;;
11092;SDS011;5600;50.864;6.102;2023-05-17T00:28:14;69.73;;;5.50;;
11092;SDS011;5600;50.864;6.102;2023-05-17T00:31:15;82.50;;;6.33;;
11092;SDS011;5600;50.864;6.102;2023-05-17T00:34:17;80.03;;;6.17;;
11092;SDS011;5600;50.864;6.102;2023-05-17T00:37:18;88.53;;;6.43;;
11092;SDS011;5600;50.864;6.102;2023-05-17T00:40:19;97.90;;;6.70;;
11092;SDS011;5600;50.864;6.102;2023-05-17T00:43:19;93.77;;;6.50;;
11092;SDS011;5600;50.864;6.102;2023-05-17T00:46:20;78.37;;;5.73;;
11092;SDS011;5600;50.864;6.102;2023-05-17T00:49:21;65.00;;;5.20;;
11092;SDS011;5600;50.864;6.102;2023-05-17T00:52:23;54.10;;;5.33;;
11092;SDS011;5600;50.864;6.102;2023-05-17T00:55:24;68.97;;;5.80;;
11092;SDS011;5600;50.864;6.102;2023-05-17T00:58:25;81.37;;;6.33;;
11092;SDS011;5600;50.864;6.102;2023-05-17T01:01:26;94.83;;;7.13;;
11092;SDS011;5600;50.864;6.102;2023-05-17T01:04:27;75.37;;;6.17;;
11092;SDS011;5600;50.864;6.102;2023-05-17T01:07:29;74.93;;;5.80;;
11092;SDS011;5600;50.864;6.102;2023-05-17T01:10:34;82.10;;;6.40;;
11092;SDS011;5600;50.864;6.102;2023-05-17T01:13:57;93.70;;;7.07;;
11092;SDS011;5600;50.864;6.102;2023-05-17T01:17:21;72.10;;;6.00;;
11092;SDS011;5600;50.864;6.102;2023-05-17T01:27:08;55.20;;;5.20;;
11092;SDS011;5600;50.864;6.102;2023-05-17T01:30:11;44.57;;;5.37;;
11092;SDS011;5600;50.864;6.102;2023-05-17T01:33:12;60.13;;;5.30;;
11092;SDS011;5600;50.864;6.102;2023-05-17T01:36:14;57.93;;;5.50;;
11092;SDS011;5600;50.864;6.102;2023-05-17T01:39:15;77.63;;;6.73;;
11092;SDS011;5600;50.864;6.102;2023-05-17T01:42:20;62.67;;;5.60;;
11092;SDS011;5600;50.864;6.102;2023-05-17T01:45:23;82.37;;;6.53;;
11092;SDS011;5600;50.864;6.102;2023-05-17T01:48:30;63.27;;;5.43;;
11092;SDS011;5600;50.864;6.102;2023-05-17T01:51:37;67.97;;;5.80;;
11092;SDS011;5600;50.864;6.102;2023-05-17T01:55:28;81.53;;;6.40;;
11092;SDS011;5600;50.864;6.102;2023-05-17T01:58:14;81.37;;;6.37;;
11092;SDS011;5600;50.864;6.102;2023-05-17T02:01:16;65.83;;;5.93;;
11092;SDS011;5600;50.864;6.102;2023-05-17T02:04:18;83.07;;;6.97;;
11092;SDS011;5600;50.864;6.102;2023-05-17T02:07:19;62.93;;;5.97;;
11092;SDS011;5600;50.864;6.102;2023-05-17T02:10:20;52.17;;;5.23;;
11092;SDS011;5600;50.864;6.102;2023-05-17T02:13:21;60.10;;;5.40;;
11092;SDS011;5600;50.864;6.102;2023-05-17T02:16:21;88.93;;;6.67;;
11092;SDS011;5600;50.864;6.102;2023-05-17T02:19:23;102.67;;;7.10;;
11092;SDS011;5600;50.864;6.102;2023-05-17T02:22:23;84.43;;;6.43;;
11092;SDS011;5600;50.864;6.102;2023-05-17T02:25:24;76.97;;;6.40;;
11092;SDS011;5600;50.864;6.102;2023-05-17T02:28:26;66.10;;;5.87;;
11092;SDS011;5600;50.864;6.102;2023-05-17T02:31:27;235.27;;;12.67;;
11092;SDS011;5600;50.864;6.102;2023-05-17T02:34:28;66.40;;;5.30;;
11092;SDS011;5600;50.864;6.102;2023-05-17T02:37:28;74.87;;;5.67;;
11092;SDS011;5600;50.864;6.102;2023-05-17T02:40:30;79.83;;;5.77;;
11092;SDS011;5600;50.864;6.102;2023-05-17T02:43:31;74.87;;;5.60;;
11092;SDS011;5600;50.864;6.102;2023-05-17T02:46:32;77.97;;;6.00;;
11092;SDS011;5600;50.864;6.102;2023-05-17T02:49:32;80.17;;;6.20;;
11092;SDS011;5600;50.864;6.102;2023-05-17T02:52:33;75.90;;;5.93;;
11092;SDS011;5600;50.864;6.102;2023-05-17T02:55:34;77.47;;;5.70;;
11092;SDS011;5600;50.864;6.102;2023-05-17T02:58:35;78.10;;;5.97;;
11092;SDS011;5600;50.864;6.102;2023-05-17T03:01:36;62.70;;;5.23;;
11092;SDS011;5600;50.864;6.102;2023-05-17T03:04:38;61.07;;;4.93;;
11092;SDS011;5600;50.864;6.102;2023-05-17T03:07:38;74.37;;;5.67;;
11092;SDS011;5600;50.864;6.102;2023-05-17T03:10:39;50.93;;;4.87;;
11092;SDS011;5600;50.864;6.102;2023-05-17T03:13:41;62.20;;;5.87;;
11092;SDS011;5600;50.864;6.102;2023-05-17T03:16:42;60.43;;;5.43;;
11092;SDS011;5600;50.864;6.102;2023-05-17T03:19:44;80.07;;;6.67;;
11092;SDS011;5600;50.864;6.102;2023-05-17T03:22:45;70.00;;;6.10;;
11092;SDS011;5600;50.864;6.102;2023-05-17T03:25:47;73.40;;;6.00;;
11092;SDS011;5600;50.864;6.102;2023-05-17T03:28:48;84.53;;;6.07;;
11092;SDS011;5600;50.864;6.102;2023-05-17T03:31:51;103.97;;;7.00;;
11092;SDS011;5600;50.864;6.102;2023-05-17T03:34:52;76.90;;;6.13;;
11092;SDS011;5600;50.864;6.102;2023-05-17T03:37:53;78.13;;;6.10;;
11092;SDS011;5600;50.864;6.102;2023-05-17T03:40:54;68.93;;;6.20;;
11092;SDS011;5600;50.864;6.102;2023-05-17T03:43:56;67.57;;;6.00;;
11092;SDS011;5600;50.864;6.102;2023-05-17T03:46:57;110.63;;;7.87;;
11092;SDS011;5600;50.864;6.102;2023-05-17T03:49:58;85.70;;;6.57;;
11092;SDS011;5600;50.864;6.102;2023-05-17T03:52:59;93.10;;;7.03;;
11092;SDS011;5600;50.864;6.102;2023-05-17T03:56:01;111.40;;;7.50;;
11092;SDS011;5600;50.864;6.102;2023-05-17T03:59:02;64.77;;;5.73;;
11092;SDS011;5600;50.864;6.102;2023-05-17T04:02:04;108.37;;;7.50;;
11092;SDS011;5600;50.864;6.102;2023-05-17T04:05:06;126.90;;;8.40;;
11092;SDS011;5600;50.864;6.102;2023-05-17T04:08:07;69.07;;;5.60;;
11092;SDS011;5600;50.864;6.102;2023-05-17T04:11:08;68.50;;;5.63;;
11092;SDS011;5600;50.864;6.102;2023-05-17T04:14:12;75.03;;;6.20;;
11092;SDS011;5600;50.864;6.102;2023-05-17T04:17:12;76.87;;;6.10;;
11092;SDS011;5600;50.864;6.102;2023-05-17T04:20:13;59.77;;;5.07;;
11092;SDS011;5600;50.864;6.102;2023-05-17T04:23:15;82.70;;;6.43;;
11092;SDS011;5600;50.864;6.102;2023-05-17T04:26:16;71.37;;;5.90;;
11092;SDS011;5600;50.864;6.102;2023-05-17T04:29:17;53.87;;;5.13;;
11092;SDS011;5600;50.864;6.102;2023-05-17T04:32:18;62.07;;;6.30;;
11092;SDS011;5600;50.864;6.102;2023-05-17T04:35:21;48.20;;;5.10;;
11092;SDS011;5600;50.864;6.102;2023-05-17T04:38:25;52.00;;;5.23;;
11092;SDS011;5600;50.864;6.102;2023-05-17T04:41:26;59.87;;;5.70;;
11092;SDS011;5600;50.864;6.102;2023-05-17T04:44:28;56.20;;;5.40;;
11092;SDS011;5600;50.864;6.102;2023-05-17T04:47:30;70.10;;;6.77;;
11092;SDS011;5600;50.864;6.102;2023-05-17T04:50:31;45.97;;;5.23;;
11092;SDS011;5600;50.864;6.102;2023-05-17T04:53:31;45.27;;;4.80;;
11092;SDS011;5600;50.864;6.102;2023-05-17T04:56:35;59.20;;;7.33;;
11092;SDS011;5600;50.864;6.102;2023-05-17T04:59:42;41.83;;;6.20;;
11092;SDS011;5600;50.864;6.102;2023-05-17T05:02:43;77.03;;;8.13;;
11092;SDS011;5600;50.864;6.102;2023-05-17T05:05:46;73.30;;;8.47;;
11092;SDS011;5600;50.864;6.102;2023-05-17T05:08:49;58.13;;;7.47;;
11092;SDS011;5600;50.864;6.102;2023-05-17T05:11:50;54.90;;;7.40;;
11092;SDS011;5600;50.864;6.102;2023-05-17T05:14:51;56.63;;;7.70;;
11092;SDS011;5600;50.864;6.102;2023-05-17T05:17:52;57.97;;;7.57;;
11092;SDS011;5600;50.864;6.102;2023-05-17T05:20:53;83.03;;;8.90;;
11092;SDS011;5600;50.864;6.102;2023-05-17T05:23:54;69.97;;;8.20;;
11092;SDS011;5600;50.864;6.102;2023-05-17T05:26:55;89.43;;;9.63;;
11092;SDS011;5600;50.864;6.102;2023-05-17T05:29:58;84.20;;;9.00;;
11092;SDS011;5600;50.864;6.102;2023-05-17T05:32:59;121.80;;;10.37;;
11092;SDS011;5600;50.864;6.102;2023-05-17T05:36:00;100.30;;;9.47;;
11092;SDS011;5600;50.864;6.102;2023-05-17T05:39:01;123.83;;;10.70;;
11092;SDS011;5600;50.864;6.102;2023-05-17T05:42:04;124.33;;;11.10;;
11092;SDS011;5600;50.864;6.102;2023-05-17T05:45:06;133.50;;;11.67;;
11092;SDS011;5600;50.864;6.102;2023-05-17T05:48:07;95.10;;;9.70;;
11092;SDS011;5600;50.864;6.102;2023-05-17T05:51:08;189.77;;;13.70;;
11092;SDS011;5600;50.864;6.102;2023-05-17T05:54:13;109.53;;;10.63;;
11092;SDS011;5600;50.864;6.102;2023-05-17T05:57:15;111.63;;;10.83;;
11092;SDS011;5600;50.864;6.102;2023-05-17T06:00:16;74.00;;;9.10;;
11092;SDS011;5600;50.864;6.102;2023-05-17T06:03:17;119.03;;;11.17;;
11092;SDS011;5600;50.864;6.102;2023-05-17T06:06:18;96.03;;;10.33;;
11092;SDS011;5600;50.864;6.102;2023-05-17T06:09:20;91.03;;;10.63;;
11092;SDS011;5600;50.864;6.102;2023-05-17T06:12:20;96.40;;;10.30;;
11092;SDS011;5600;50.864;6.102;2023-05-17T06:15:22;95.70;;;10.30;;
11092;SDS011;5600;50.864;6.102;2023-05-17T06:18:23;85.87;;;10.30;;
11092;SDS011;5600;50.864;6.102;2023-05-17T06:21:25;77.13;;;9.30;;
11092;SDS011;5600;50.864;6.102;2023-05-17T06:24:26;77.73;;;9.77;;
11092;SDS011;5600;50.864;6.102;2023-05-17T06:27:27;99.67;;;10.17;;
11092;SDS011;5600;50.864;6.102;2023-05-17T06:30:28;99.40;;;10.90;;
11092;SDS011;5600;50.864;6.102;2023-05-17T06:33:29;82.60;;;9.53;;
11092;SDS011;5600;50.864;6.102;2023-05-17T06:36:30;80.57;;;9.47;;
11092;SDS011;5600;50.864;6.102;2023-05-17T06:39:31;119.47;;;11.77;;
11092;SDS011;5600;50.864;6.102;2023-05-17T06:42:32;79.87;;;9.67;;
11092;SDS011;5600;50.864;6.102;2023-05-17T06:45:33;92.10;;;10.07;;
11092;SDS011;5600;50.864;6.102;2023-05-17T06:48:34;109.20;;;11.03;;
11092;SDS011;5600;50.864;6.102;2023-05-17T06:51:35;127.43;;;11.13;;
11092;SDS011;5600;50.864;6.102;2023-05-17T06:54:36;89.17;;;8.73;;
11092;SDS011;5600;50.864;6.102;2023-05-17T06:57:37;110.97;;;9.73;;
11092;SDS011;5600;50.864;6.102;2023-05-17T07:00:38;88.53;;;9.00;;
11092;SDS011;5600;50.864;6.102;2023-05-17T07:03:39;70.17;;;7.80;;
11092;SDS011;5600;50.864;6.102;2023-05-17T07:06:41;69.13;;;8.57;;
11092;SDS011;5600;50.864;6.102;2023-05-17T07:09:41;86.50;;;9.93;;
11092;SDS011;5600;50.864;6.102;2023-05-17T07:12:43;98.17;;;9.63;;
11092;SDS011;5600;50.864;6.102;2023-05-17T07:15:44;82.80;;;9.67;;
11092;SDS011;5600;50.864;6.102;2023-05-17T07:18:45;106.27;;;10.60;;
11092;SDS011;5600;50.864;6.102;2023-05-17T07:21:46;67.97;;;8.80;;
11092;SDS011;5600;50.864;6.102;2023-05-17T07:24:47;98.47;;;10.07;;
11092;SDS011;5600;50.864;6.102;2023-05-17T07:27:51;81.20;;;9.07;;
11092;SDS011;5600;50.864;6.102;2023-05-17T07:30:52;74.50;;;8.67;;
11092;SDS011;5600;50.864;6.102;2023-05-17T07:33:52;90.50;;;9.07;;
11092;SDS011;5600;50.864;6.102;2023-05-17T07:36:53;83.50;;;8.90;;
11092;SDS011;5600;50.864;6.102;2023-05-17T07:39:55;88.20;;;8.93;;
11092;SDS011;5600;50.864;6.102;2023-05-17T07:42:55;70.90;;;8.13;;
11092;SDS011;5600;50.864;6.102;2023-05-17T07:45:56;75.60;;;8.67;;
11092;SDS011;5600;50.864;6.102;2023-05-17T07:48:57;53.40;;;7.37;;
11092;SDS011;5600;50.864;6.102;2023-05-17T07:51:58;84.80;;;8.83;;
11092;SDS011;5600;50.864;6.102;2023-05-17T07:55:01;74.27;;;8.00;;
11092;SDS011;5600;50.864;6.102;2023-05-17T07:58:04;92.47;;;9.27;;
11092;SDS011;5600;50.864;6.102;2023-05-17T08:01:05;114.87;;;9.33;;
11092;SDS011;5600;50.864;6.102;2023-05-17T08:04:09;89.83;;;8.90;;
11092;SDS011;5600;50.864;6.102;2023-05-17T08:07:10;89.27;;;8.80;;
11092;SDS011;5600;50.864;6.102;2023-05-17T08:10:11;107.47;;;10.03;;
11092;SDS011;5600;50.864;6.102;2023-05-17T08:13:12;85.27;;;8.80;;
11092;SDS011;5600;50.864;6.102;2023-05-17T08:16:13;106.77;;;9.40;;
11092;SDS011;5600;50.864;6.102;2023-05-17T08:19:13;68.53;;;6.77;;
11092;SDS011;5600;50.864;6.102;2023-05-17T08:22:15;110.97;;;8.43;;
11092;SDS011;5600;50.864;6.102;2023-05-17T08:25:16;123.77;;;9.30;;
11092;SDS011;5600;50.864;6.102;2023-05-17T08:28:18;105.53;;;8.07;;
11092;SDS011;5600;50.864;6.102;2023-05-17T08:31:19;79.67;;;7.23;;
11092;SDS011;5600;50.864;6.102;2023-05-17T08:34:20;76.70;;;6.67;;
11092;SDS011;5600;50.864;6.102;2023-05-17T08:37:21;55.43;;;6.20;;
11092;SDS011;5600;50.864;6.102;2023-05-17T08:40:22;60.13;;;6.10;;
11092;SDS011;5600;50.864;6.102;2023-05-17T08:43:22;69.73;;;6.53;;
11092;SDS011;5600;50.864;6.102;2023-05-17T08:46:24;78.77;;;6.83;;
11092;SDS011;5600;50.864;6.102;2023-05-17T08:49:26;68.37;;;6.37;;
11092;SDS011;5600;50.864;6.102;2023-05-17T08:52:31;88.97;;;7.33;;
11092;SDS011;5600;50.864;6.102;2023-05-17T08:55:32;55.60;;;5.30;;
11092;SDS011;5600;50.864;6.102;2023-05-17T08:58:34;45.20;;;5.10;;
11092;SDS011;5600;50.864;6.102;2023-05-17T09:01:38;95.20;;;7.57;;
11092;SDS011;5600;50.864;6.102;2023-05-17T09:04:40;80.23;;;6.80;;
11092;SDS011;5600;50.864;6.102;2023-05-17T09:07:42;71.93;;;6.50;;
11092;SDS011;5600;50.864;6.102;2023-05-17T09:10:43;63.27;;;6.13;;
11092;SDS011;5600;50.864;6.102;2023-05-17T09:13:43;67.03;;;6.20;;
11092;SDS011;5600;50.864;6.102;2023-05-17T09:16:44;79.23;;;7.37;;
11092;SDS011;5600;50.864;6.102;2023-05-17T09:19:46;78.80;;;7.03;;
11092;SDS011;5600;50.864;6.102;2023-05-17T09:22:47;71.40;;;6.80;;
11092;SDS011;5600;50.864;6.102;2023-05-17T09:25:48;70.47;;;6.73;;
11092;SDS011;5600;50.864;6.102;2023-05-17T09:28:49;97.30;;;7.33;;
11092;SDS011;5600;50.864;6.102;2023-05-17T09:31:52;73.00;;;6.57;;
11092;SDS011;5600;50.864;6.102;2023-05-17T09:34:54;70.47;;;6.10;;
11092;SDS011;5600;50.864;6.102;2023-05-17T09:38:05;46.00;;;5.00;;
11092;SDS011;5600;50.864;6.102;2023-05-17T09:41:07;103.97;;;7.93;;
11092;SDS011;5600;50.864;6.102;2023-05-17T09:44:08;79.47;;;6.33;;
11092;SDS011;5600;50.864;6.102;2023-05-17T09:47:10;99.37;;;6.80;;
11092;SDS011;5600;50.864;6.102;2023-05-17T09:50:20;91.37;;;6.23;;
11092;SDS011;5600;50.864;6.102;2023-05-17T09:53:25;85.43;;;6.60;;
11092;SDS011;5600;50.864;6.102;2023-05-17T09:56:27;100.73;;;6.90;;
11092;SDS011;5600;50.864;6.102;2023-05-17T09:59:29;78.37;;;5.90;;
11092;SDS011;5600;50.864;6.102;2023-05-17T10:02:30;236.50;;;13.03;;
11092;SDS011;5600;50.864;6.102;2023-05-17T10:05:32;143.20;;;9.00;;
11092;SDS011;5600;50.864;6.102;2023-05-17T10:08:34;88.22;;;6.28;;
11092;SDS011;5600;50.864;6.102;2023-05-17T10:11:36;122.15;;;8.02;;
11092;SDS011;5600;50.864;6.102;2023-05-17T10:14:39;189.88;;;10.38;;
11092;SDS011;5600;50.864;6.102;2023-05-17T10:17:40;71.70;;;5.75;;
11092;SDS011;5600;50.864;6.102;2023-05-17T10:20:41;82.00;;;6.10;;
11092;SDS011;5600;50.864;6.102;2023-05-17T10:23:43;81.13;;;6.05;;
11092;SDS011;5600;50.864;6.102;2023-05-17T10:26:45;92.75;;;6.38;;
11092;SDS011;5600;50.864;6.102;2023-05-17T10:29:51;82.10;;;5.78;;
11092;SDS011;5600;50.864;6.102;2023-05-17T10:32:53;82.93;;;5.82;;
11092;SDS011;5600;50.864;6.102;2023-05-17T10:35:55;90.20;;;6.30;;
11092;SDS011;5600;50.864;6.102;2023-05-17T10:38:55;61.45;;;4.88;;
11092;SDS011;5600;50.864;6.102;2023-05-17T10:41:57;104.55;;;6.70;;
11092;SDS011;5600;50.864;6.102;2023-05-17T10:45:00;64.47;;;4.90;;
11092;SDS011;5600;50.864;6.102;2023-05-17T10:48:03;77.30;;;5.22;;
11092;SDS011;5600;50.864;6.102;2023-05-17T10:51:05;78.70;;;5.50;;
11092;SDS011;5600;50.864;6.102;2023-05-17T10:57:21;121.20;;;6.95;;
11092;SDS011;5600;50.864;6.102;2023-05-17T11:00:32;92.57;;;5.72;;
11092;SDS011;5600;50.864;6.102;2023-05-17T11:03:39;81.57;;;5.45;;
11092;SDS011;5600;50.864;6.102;2023-05-17T11:06:41;76.88;;;5.28;;
11092;SDS011;5600;50.864;6.102;2023-05-17T11:09:42;82.95;;;5.88;;
11092;SDS011;5600;50.864;6.102;2023-05-17T11:12:44;87.35;;;5.88;;
11092;SDS011;5600;50.864;6.102;2023-05-17T11:16:01;83.70;;;5.80;;
11092;SDS011;5600;50.864;6.102;2023-05-17T11:19:07;91.93;;;6.20;;
11092;SDS011;5600;50.864;6.102;2023-05-17T11:22:10;81.63;;;5.95;;
11092;SDS011;5600;50.864;6.102;2023-05-17T11:25:12;114.10;;;6.90;;
11092;SDS011;5600;50.864;6.102;2023-05-17T11:28:20;99.53;;;6.20;;
11092;SDS011;5600;50.864;6.102;2023-05-17T11:31:30;196.30;;;10.10;;
11092;SDS011;5600;50.864;6.102;2023-05-17T11:34:32;135.20;;;7.95;;
11092;SDS011;5600;50.864;6.102;2023-05-17T11:37:33;116.68;;;7.80;;
11092;SDS011;5600;50.864;6.102;2023-05-17T11:40:35;82.57;;;5.85;;
11092;SDS011;5600;50.864;6.102;2023-05-17T11:43:35;80.15;;;5.55;;
11092;SDS011;5600;50.864;6.102;2023-05-17T11:46:36;88.50;;;6.35;;
11092;SDS011;5600;50.864;6.102;2023-05-17T11:49:38;79.45;;;5.60;;
11092;SDS011;5600;50.864;6.102;2023-05-17T11:52:39;107.95;;;6.70;;
11092;SDS011;5600;50.864;6.102;2023-05-17T11:55:41;91.45;;;6.30;;
11092;SDS011;5600;50.864;6.102;2023-05-17T11:58:43;110.00;;;7.03;;
11092;SDS011;5600;50.864;6.102;2023-05-17T12:01:45;88.93;;;6.35;;
11092;SDS011;5600;50.864;6.102;2023-05-17T12:04:47;71.30;;;5.60;;
11092;SDS011;5600;50.864;6.102;2023-05-17T12:07:49;87.93;;;6.13;;
11092;SDS011;5600;50.864;6.102;2023-05-17T12:10:51;85.72;;;5.85;;
11092;SDS011;5600;50.864;6.102;2023-05-17T12:13:53;87.05;;;6.30;;
11092;SDS011;5600;50.864;6.102;2023-05-17T12:16:54;83.72;;;6.10;;
11092;SDS011;5600;50.864;6.102;2023-05-17T12:20:08;97.75;;;6.25;;
11092;SDS011;5600;50.864;6.102;2023-05-17T12:23:09;85.25;;;5.68;;
11092;SDS011;5600;50.864;6.102;2023-05-17T12:26:11;91.88;;;6.22;;
11092;SDS011;5600;50.864;6.102;2023-05-17T12:29:13;102.32;;;7.40;;
11092;SDS011;5600;50.864;6.102;2023-05-17T12:32:20;119.38;;;7.35;;
11092;SDS011;5600;50.864;6.102;2023-05-17T12:35:21;139.80;;;8.05;;
11092;SDS011;5600;50.864;6.102;2023-05-17T12:38:23;166.55;;;9.48;;
11092;SDS011;5600;50.864;6.102;2023-05-17T12:41:26;86.00;;;5.88;;
11092;SDS011;5600;50.864;6.102;2023-05-17T12:44:29;105.72;;;6.50;;
11092;SDS011;5600;50.864;6.102;2023-05-17T12:47:30;92.03;;;5.95;;
11092;SDS011;5600;50.864;6.102;2023-05-17T12:50:31;83.93;;;6.00;;
11092;SDS011;5600;50.864;6.102;2023-05-17T12:53:36;95.13;;;6.28;;
11092;SDS011;5600;50.864;6.102;2023-05-17T12:56:41;77.28;;;5.80;;
11092;SDS011;5600;50.864;6.102;2023-05-17T12:59:48;98.10;;;6.40;;
11092;SDS011;5600;50.864;6.102;2023-05-17T13:02:51;70.67;;;5.13;;
11092;SDS011;5600;50.864;6.102;2023-05-17T13:05:59;115.07;;;7.13;;
11092;SDS011;5600;50.864;6.102;2023-05-17T13:09:05;96.53;;;6.53;;
11092;SDS011;5600;50.864;6.102;2023-05-17T13:12:06;93.57;;;5.90;;
11092;SDS011;5600;50.864;6.102;2023-05-17T13:15:07;159.75;;;8.93;;
11092;SDS011;5600;50.864;6.102;2023-05-17T13:18:11;106.68;;;6.65;;
11092;SDS011;5600;50.864;6.102;2023-05-17T13:21:17;108.93;;;7.40;;
11092;SDS011;5600;50.864;6.102;2023-05-17T13:24:19;253.07;;;12.85;;
11092;SDS011;5600;50.864;6.102;2023-05-17T13:27:20;115.68;;;7.35;;
11092;SDS011;5600;50.864;6.102;2023-05-17T13:30:21;146.25;;;8.30;;
11092;SDS011;5600;50.864;6.102;2023-05-17T13:33:22;131.20;;;8.07;;
11092;SDS011;5600;50.864;6.102;2023-05-17T13:36:23;113.75;;;6.53;;
11092;SDS011;5600;50.864;6.102;2023-05-17T13:39:25;106.50;;;6.55;;
11092;SDS011;5600;50.864;6.102;2023-05-17T13:42:26;132.50;;;7.47;;
11092;SDS011;5600;50.864;6.102;2023-05-17T13:45:27;101.68;;;6.63;;
11092;SDS011;5600;50.864;6.102;2023-05-17T13:48:28;94.80;;;6.38;;
11092;SDS011;5600;50.864;6.102;2023-05-17T13:51:30;124.72;;;7.22;;
11092;SDS011;5600;50.864;6.102;2023-05-17T13:54:31;91.93;;;5.97;;
11092;SDS011;5600;50.864;6.102;2023-05-17T13:57:32;165.77;;;9.15;;
11092;SDS011;5600;50.864;6.102;2023-05-17T14:00:32;113.68;;;6.60;;
11092;SDS011;5600;50.864;6.102;2023-05-17T14:03:33;117.93;;;7.22;;
11092;SDS011;5600;50.864;6.102;2023-05-17T14:06:35;78.38;;;5.25;;
11092;SDS011;5600;50.864;6.102;2023-05-17T14:09:36;89.70;;;5.75;;
11092;SDS011;5600;50.864;6.102;2023-05-17T14:12:38;78.57;;;5.38;;
11092;SDS011;5600;50.864;6.102;2023-05-17T14:15:41;70.57;;;4.75;;
11092;SDS011;5600;50.864;6.102;2023-05-17T14:18:42;86.72;;;5.28;;
11092;SDS011;5600;50.864;6.102;2023-05-17T14:21:42;93.75;;;5.88;;
11092;SDS011;5600;50.864;6.102;2023-05-17T14:24:43;79.95;;;5.18;;
11092;SDS011;5600;50.864;6.102;2023-05-17T14:27:44;84.78;;;5.50;;
11092;SDS011;5600;50.864;6.102;2023-05-17T14:30:45;83.00;;;5.30;;
11092;SDS011;5600;50.864;6.102;2023-05-17T14:33:46;106.43;;;6.68;;
11092;SDS011;5600;50.864;6.102;2023-05-17T14:36:47;93.20;;;5.93;;
11092;SDS011;5600;50.864;6.102;2023-05-17T14:39:50;73.40;;;5.32;;
11092;SDS011;5600;50.864;6.102;2023-05-17T14:42:51;66.25;;;4.68;;
11092;SDS011;5600;50.864;6.102;2023-05-17T14:45:52;100.18;;;6.10;;
11092;SDS011;5600;50.864;6.102;2023-05-17T14:48:53;68.30;;;4.68;;
11092;SDS011;5600;50.864;6.102;2023-05-17T14:51:55;88.10;;;5.47;;
11092;SDS011;5600;50.864;6.102;2023-05-17T14:54:55;87.50;;;6.07;;
11092;SDS011;5600;50.864;6.102;2023-05-17T14:57:57;103.95;;;6.28;;
11092;SDS011;5600;50.864;6.102;2023-05-17T15:00:58;111.72;;;6.65;;
11092;SDS011;5600;50.864;6.102;2023-05-17T15:04:00;93.03;;;5.97;;
11092;SDS011;5600;50.864;6.102;2023-05-17T15:07:01;91.38;;;6.18;;
11092;SDS011;5600;50.864;6.102;2023-05-17T15:10:04;94.97;;;5.97;;
11092;SDS011;5600;50.864;6.102;2023-05-17T15:13:05;110.90;;;6.80;;
11092;SDS011;5600;50.864;6.102;2023-05-17T15:16:07;122.00;;;7.28;;
11092;SDS011;5600;50.864;6.102;2023-05-17T15:19:07;82.97;;;5.68;;
11092;SDS011;5600;50.864;6.102;2023-05-17T15:22:09;72.95;;;5.10;;
11092;SDS011;5600;50.864;6.102;2023-05-17T15:25:10;110.10;;;6.70;;
11092;SDS011;5600;50.864;6.102;2023-05-17T15:28:11;159.95;;;8.50;;
11092;SDS011;5600;50.864;6.102;2023-05-17T15:31:13;95.63;;;6.05;;
11092;SDS011;5600;50.864;6.102;2023-05-17T15:34:14;93.38;;;6.07;;
11092;SDS011;5600;50.864;6.102;2023-05-17T15:37:15;118.10;;;6.97;;
11092;SDS011;5600;50.864;6.102;2023-05-17T15:40:16;66.03;;;5.05;;
11092;SDS011;5600;50.864;6.102;2023-05-17T15:43:17;79.75;;;5.45;;
11092;SDS011;5600;50.864;6.102;2023-05-17T15:46:19;99.03;;;6.00;;
11092;SDS011;5600;50.864;6.102;2023-05-17T15:49:20;92.70;;;6.18;;
11092;SDS011;5600;50.864;6.102;2023-05-17T15:52:22;86.28;;;5.82;;
11092;SDS011;5600;50.864;6.102;2023-05-17T15:55:23;96.45;;;6.38;;
11092;SDS011;5600;50.864;6.102;2023-05-17T15:58:24;93.93;;;6.05;;
11092;SDS011;5600;50.864;6.102;2023-05-17T16:01:27;125.97;;;7.32;;
11092;SDS011;5600;50.864;6.102;2023-05-17T16:04:27;84.70;;;5.38;;
11092;SDS011;5600;50.864;6.102;2023-05-17T16:07:28;95.88;;;5.90;;
11092;SDS011;5600;50.864;6.102;2023-05-17T16:10:30;119.40;;;7.00;;
11092;SDS011;5600;50.864;6.102;2023-05-17T16:13:31;94.53;;;5.90;;
11092;SDS011;5600;50.864;6.102;2023-05-17T16:16:32;62.80;;;5.00;;
11092;SDS011;5600;50.864;6.102;2023-05-17T16:19:33;63.85;;;5.20;;
11092;SDS011;5600;50.864;6.102;2023-05-17T16:22:33;97.07;;;6.25;;
11092;SDS011;5600;50.864;6.102;2023-05-17T16:25:35;96.07;;;6.07;;
11092;SDS011;5600;50.864;6.102;2023-05-17T16:28:36;123.20;;;7.22;;
11092;SDS011;5600;50.864;6.102;2023-05-17T16:31:37;99.85;;;6.13;;
11092;SDS011;5600;50.864;6.102;2023-05-17T16:34:38;80.25;;;5.28;;
11092;SDS011;5600;50.864;6.102;2023-05-17T16:37:40;146.13;;;8.93;;
11092;SDS011;5600;50.864;6.102;2023-05-17T16:40:42;119.97;;;6.72;;
11092;SDS011;5600;50.864;6.102;2023-05-17T16:43:43;87.10;;;5.72;;
11092;SDS011;5600;50.864;6.102;2023-05-17T16:46:44;134.30;;;7.47;;
11092;SDS011;5600;50.864;6.102;2023-05-17T16:49:45;155.40;;;8.35;;
11092;SDS011;5600;50.864;6.102;2023-05-17T16:52:46;64.38;;;4.68;;
11092;SDS011;5600;50.864;6.102;2023-05-17T16:55:48;110.93;;;6.50;;
11092;SDS011;5600;50.864;6.102;2023-05-17T16:58:49;126.40;;;7.38;;
11092;SDS011;5600;50.864;6.102;2023-05-17T17:01:51;83.47;;;5.38;;
11092;SDS011;5600;50.864;6.102;2023-05-17T17:04:52;75.00;;;5.05;;
11092;SDS011;5600;50.864;6.102;2023-05-17T17:07:53;164.90;;;9.07;;
11092;SDS011;5600;50.864;6.102;2023-05-17T17:10:54;106.32;;;6.38;;
11092;SDS011;5600;50.864;6.102;2023-05-17T17:13:55;78.65;;;5.20;;
11092;SDS011;5600;50.864;6.102;2023-05-17T17:16:57;109.05;;;6.57;;
11092;SDS011;5600;50.864;6.102;2023-05-17T17:19:58;146.60;;;8.70;;
11092;SDS011;5600;50.864;6.102;2023-05-17T17:22:59;138.48;;;7.93;;
11092;SDS011;5600;50.864;6.102;2023-05-17T17:26:00;131.50;;;7.93;;
11092;SDS011;5600;50.864;6.102;2023-05-17T17:29:01;118.20;;;7.32;;
11092;SDS011;5600;50.864;6.102;2023-05-17T17:32:03;51.08;;;4.10;;
11092;SDS011;5600;50.864;6.102;2023-05-17T17:35:04;46.33;;;4.07;;
11092;SDS011;5600;50.864;6.102;2023-05-17T17:38:05;55.67;;;4.40;;
11092;SDS011;5600;50.864;6.102;2023-05-17T17:41:07;72.85;;;4.88;;
11092;SDS011;5600;50.864;6.102;2023-05-17T17:44:09;74.30;;;5.43;;
11092;SDS011;5600;50.864;6.102;2023-05-17T17:47:10;86.20;;;5.93;;
11092;SDS011;5600;50.864;6.102;2023-05-17T17:50:11;70.82;;;5.47;;
11092;SDS011;5600;50.864;6.102;2023-05-17T17:53:12;68.75;;;5.03;;
11092;SDS011;5600;50.864;6.102;2023-05-17T17:56:13;58.60;;;4.85;;
11092;SDS011;5600;50.864;6.102;2023-05-17T17:59:14;57.38;;;4.47;;
11092;SDS011;5600;50.864;6.102;2023-05-17T18:02:15;72.63;;;5.32;;
11092;SDS011;5600;50.864;6.102;2023-05-17T18:05:16;92.28;;;6.43;;
11092;SDS011;5600;50.864;6.102;2023-05-17T18:08:17;71.55;;;4.97;;
11092;SDS011;5600;50.864;6.102;2023-05-17T18:11:18;69.68;;;4.82;;
11092;SDS011;5600;50.864;6.102;2023-05-17T18:14:20;70.10;;;5.05;;
11092;SDS011;5600;50.864;6.102;2023-05-17T18:17:21;57.10;;;4.53;;
11092;SDS011;5600;50.864;6.102;2023-05-17T18:20:22;74.13;;;5.25;;